sensor_id;sensor_type;location;lat;lon;timestamp;pressure;altitude;pressure_sealevel;temperature;humidity
70952;BME280;69214;55.880;37.542;2023-05-07T00:01:59;99872.59;;;-2.58;58.20
70952;BME280;69214;55.880;37.542;2023-05-07T00:04:25;99900.88;;;-2.46;58.43
70952;BME280;69214;55.880;37.542;2023-05-07T00:06:50;99893.69;;;-2.55;58.34
70952;BME280;69214;55.880;37.542;2023-05-07T00:09:16;99901.00;;;-2.57;57.89
70952;BME280;69214;55.880;37.542;2023-05-07T00:11:42;99892.69;;;-2.64;58.01
70952;BME280;69214;55.880;37.542;2023-05-07T00:14:07;99913.63;;;-2.59;58.34
70952;BME280;69214;55.880;37.542;2023-05-07T00:16:33;99893.38;;;-2.72;58.20
70952;BME280;69214;55.880;37.542;2023-05-07T00:18:59;99897.88;;;-2.63;57.55
70952;BME280;69214;55.880;37.542;2023-05-07T00:21:25;99897.47;;;-2.58;58.25
70952;BME280;69214;55.880;37.542;2023-05-07T00:23:54;99886.91;;;-2.69;58.31
70952;BME280;69214;55.880;37.542;2023-05-07T00:26:20;99909.13;;;-2.59;58.60
70952;BME280;69214;55.880;37.542;2023-05-07T00:28:49;99888.03;;;-2.72;57.90
70952;BME280;69214;55.880;37.542;2023-05-07T00:31:14;99908.56;;;-2.63;57.58
70952;BME280;69214;55.880;37.542;2023-05-07T00:33:40;99903.22;;;-2.63;58.64
70952;BME280;69214;55.880;37.542;2023-05-07T00:36:06;99900.56;;;-2.63;58.72
70952;BME280;69214;55.880;37.542;2023-05-07T00:38:32;99905.19;;;-2.65;59.56
70952;BME280;69214;55.880;37.542;2023-05-07T00:40:58;99907.16;;;-2.67;58.45
70952;BME280;69214;55.880;37.542;2023-05-07T00:43:23;99890.84;;;-2.73;58.26
70952;BME280;69214;55.880;37.542;2023-05-07T00:45:49;99905.75;;;-2.71;57.91
70952;BME280;69214;55.880;37.542;2023-05-07T00:48:15;99903.19;;;-2.72;57.80
70952;BME280;69214;55.880;37.542;2023-05-07T00:50:41;99900.94;;;-2.77;57.70
70952;BME280;69214;55.880;37.542;2023-05-07T00:53:07;99895.19;;;-2.72;56.83
70952;BME280;69214;55.880;37.542;2023-05-07T00:55:33;99904.88;;;-2.71;57.71
70952;BME280;69214;55.880;37.542;2023-05-07T00:58:01;99900.81;;;-2.75;58.40
70952;BME280;69214;55.880;37.542;2023-05-07T01:00:26;99897.13;;;-2.84;57.63
70952;BME280;69214;55.880;37.542;2023-05-07T01:02:52;99895.72;;;-2.88;58.15
70952;BME280;69214;55.880;37.542;2023-05-07T01:05:20;99911.03;;;-2.80;59.01
70952;BME280;69214;55.880;37.542;2023-05-07T01:07:48;99910.19;;;-2.81;57.95
70952;BME280;69214;55.880;37.542;2023-05-07T01:10:15;99911.03;;;-2.80;56.91
70952;BME280;69214;55.880;37.542;2023-05-07T01:12:43;99909.22;;;-2.80;58.17
70952;BME280;69214;55.880;37.542;2023-05-07T01:15:11;99893.03;;;-2.88;57.33
70952;BME280;69214;55.880;37.542;2023-05-07T01:17:38;99919.63;;;-2.77;58.35
70952;BME280;69214;55.880;37.542;2023-05-07T01:20:09;99913.44;;;-2.77;58.10
70952;BME280;69214;55.880;37.542;2023-05-07T01:22:37;99915.28;;;-2.78;58.31
70952;BME280;69214;55.880;37.542;2023-05-07T01:25:06;99908.38;;;-2.80;58.65
70952;BME280;69214;55.880;37.542;2023-05-07T01:27:33;99917.94;;;-2.78;57.25
70952;BME280;69214;55.880;37.542;2023-05-07T01:29:59;99913.84;;;-2.82;58.64
70952;BME280;69214;55.880;37.542;2023-05-07T01:32:30;99918.22;;;-2.81;58.46
70952;BME280;69214;55.880;37.542;2023-05-07T01:35:00;99920.63;;;-2.78;58.28
70952;BME280;69214;55.880;37.542;2023-05-07T01:37:28;99914.13;;;-2.85;58.77
70952;BME280;69214;55.880;37.542;2023-05-07T01:39:55;99920.88;;;-2.81;57.58
70952;BME280;69214;55.880;37.542;2023-05-07T01:42:21;99915.00;;;-2.75;57.72
70952;BME280;69214;55.880;37.542;2023-05-07T01:44:47;99919.94;;;-2.70;58.28
70952;BME280;69214;55.880;37.542;2023-05-07T01:47:14;99929.94;;;-2.63;59.12
70952;BME280;69214;55.880;37.542;2023-05-07T01:49:41;99938.66;;;-2.61;59.62
70952;BME280;69214;55.880;37.542;2023-05-07T01:52:08;99935.16;;;-2.61;59.15
70952;BME280;69214;55.880;37.542;2023-05-07T01:54:34;99936.69;;;-2.58;59.19
70952;BME280;69214;55.880;37.542;2023-05-07T01:57:00;99938.66;;;-2.61;59.58
70952;BME280;69214;55.880;37.542;2023-05-07T01:59:26;99939.81;;;-2.53;59.23
70952;BME280;69214;55.880;37.542;2023-05-07T02:01:51;99932.38;;;-2.50;58.87
70952;BME280;69214;55.880;37.542;2023-05-07T02:04:17;99931.25;;;-2.47;58.00
70952;BME280;69214;55.880;37.542;2023-05-07T02:06:43;99948.72;;;-2.34;60.13
70952;BME280;69214;55.880;37.542;2023-05-07T02:09:10;99928.44;;;-2.36;59.44
70952;BME280;69214;55.880;37.542;2023-05-07T02:11:38;99938.03;;;-2.24;59.21
70952;BME280;69214;55.880;37.542;2023-05-07T02:14:04;99941.13;;;-2.19;58.80
70952;BME280;69214;55.880;37.542;2023-05-07T02:16:31;99953.66;;;-2.10;59.35
70952;BME280;69214;55.880;37.542;2023-05-07T02:18:56;99941.56;;;-2.14;59.13
70952;BME280;69214;55.880;37.542;2023-05-07T02:21:24;99941.72;;;-2.06;59.54
70952;BME280;69214;55.880;37.542;2023-05-07T02:23:50;99940.16;;;-2.08;59.32
70952;BME280;69214;55.880;37.542;2023-05-07T02:26:16;99968.31;;;-1.85;59.18
70952;BME280;69214;55.880;37.542;2023-05-07T02:28:42;99975.66;;;-1.77;59.52
70952;BME280;69214;55.880;37.542;2023-05-07T02:31:08;99966.34;;;-1.73;58.32
70952;BME280;69214;55.880;37.542;2023-05-07T02:33:34;99979.44;;;-1.60;58.67
70952;BME280;69214;55.880;37.542;2023-05-07T02:36:09;99968.03;;;-1.53;57.07
70952;BME280;69214;55.880;37.542;2023-05-07T02:38:41;99965.50;;;-1.45;58.13
70952;BME280;69214;55.880;37.542;2023-05-07T02:41:07;99978.03;;;-1.36;57.64
70952;BME280;69214;55.880;37.542;2023-05-07T02:43:32;99973.78;;;-1.28;57.92
70952;BME280;69214;55.880;37.542;2023-05-07T02:46:05;99957.88;;;-1.30;57.60
70952;BME280;69214;55.880;37.542;2023-05-07T02:48:34;99984.03;;;-1.14;57.31
70952;BME280;69214;55.880;37.542;2023-05-07T02:51:02;99974.59;;;-1.09;57.76
70952;BME280;69214;55.880;37.542;2023-05-07T02:53:28;99970.94;;;-1.08;58.37
70952;BME280;69214;55.880;37.542;2023-05-07T02:55:56;99983.56;;;-0.90;57.48
70952;BME280;69214;55.880;37.542;2023-05-07T02:58:22;99974.66;;;-0.81;56.90
70952;BME280;69214;55.880;37.542;2023-05-07T03:00:48;99989.84;;;-0.72;57.18
70952;BME280;69214;55.880;37.542;2023-05-07T03:03:34;99988.25;;;-0.65;57.22
70952;BME280;69214;55.880;37.542;2023-05-07T03:06:01;99973.47;;;-0.69;57.08
70952;BME280;69214;55.880;37.542;2023-05-07T03:08:27;99993.00;;;-0.49;56.26
70952;BME280;69214;55.880;37.542;2023-05-07T03:10:52;99992.25;;;-0.42;57.01
70952;BME280;69214;55.880;37.542;2023-05-07T03:13:18;99996.88;;;-0.34;56.15
70952;BME280;69214;55.880;37.542;2023-05-07T03:15:44;99998.34;;;-0.22;56.82
70952;BME280;69214;55.880;37.542;2023-05-07T03:18:10;100009.97;;;-0.04;56.43
70952;BME280;69214;55.880;37.542;2023-05-07T03:20:37;99982.63;;;0.90;56.52
70952;BME280;69214;55.880;37.542;2023-05-07T03:23:03;99995.00;;;3.24;52.56
70952;BME280;69214;55.880;37.542;2023-05-07T03:25:28;99987.09;;;6.18;48.02
70952;BME280;69214;55.880;37.542;2023-05-07T03:27:57;99996.84;;;9.17;43.56
70952;BME280;69214;55.880;37.542;2023-05-07T03:30:27;99990.84;;;11.57;39.41
70952;BME280;69214;55.880;37.542;2023-05-07T03:32:52;99982.53;;;13.50;36.92
70952;BME280;69214;55.880;37.542;2023-05-07T03:35:18;99995.50;;;15.10;34.48
70952;BME280;69214;55.880;37.542;2023-05-07T03:37:45;99984.25;;;16.66;32.94
70952;BME280;69214;55.880;37.542;2023-05-07T03:40:11;99980.81;;;18.19;31.03
70952;BME280;69214;55.880;37.542;2023-05-07T03:42:45;99996.06;;;19.45;29.16
70952;BME280;69214;55.880;37.542;2023-05-07T03:45:12;99987.69;;;20.05;28.70
70952;BME280;69214;55.880;37.542;2023-05-07T03:47:42;99999.56;;;20.81;28.35
70952;BME280;69214;55.880;37.542;2023-05-07T03:50:09;100001.63;;;21.77;27.07
70952;BME280;69214;55.880;37.542;2023-05-07T03:52:35;99997.56;;;22.46;25.97
70952;BME280;69214;55.880;37.542;2023-05-07T03:55:03;100000.88;;;22.91;25.02
70952;BME280;69214;55.880;37.542;2023-05-07T03:57:30;100005.78;;;23.18;25.07
70952;BME280;69214;55.880;37.542;2023-05-07T03:59:58;100012.59;;;23.63;24.29
70952;BME280;69214;55.880;37.542;2023-05-07T04:02:23;100005.03;;;23.96;24.04
70952;BME280;69214;55.880;37.542;2023-05-07T04:04:50;100008.16;;;24.08;23.63
70952;BME280;69214;55.880;37.542;2023-05-07T04:07:16;100004.97;;;24.15;23.97
70952;BME280;69214;55.880;37.542;2023-05-07T04:09:46;100007.97;;;25.23;22.85
70952;BME280;69214;55.880;37.542;2023-05-07T04:12:12;99992.59;;;26.41;22.18
70952;BME280;69214;55.880;37.542;2023-05-07T04:14:38;100018.66;;;27.67;20.73
70952;BME280;69214;55.880;37.542;2023-05-07T04:17:04;99998.16;;;28.69;19.95
70952;BME280;69214;55.880;37.542;2023-05-07T04:19:33;100010.38;;;29.23;21.97
70952;BME280;69214;55.880;37.542;2023-05-07T04:21:59;100006.25;;;29.62;19.00
70952;BME280;69214;55.880;37.542;2023-05-07T04:24:24;100001.75;;;29.82;18.71
70952;BME280;69214;55.880;37.542;2023-05-07T04:26:50;100011.19;;;29.98;18.57
70952;BME280;69214;55.880;37.542;2023-05-07T04:29:17;100017.00;;;30.14;18.37
70952;BME280;69214;55.880;37.542;2023-05-07T04:31:43;100012.13;;;30.60;18.11
70952;BME280;69214;55.880;37.542;2023-05-07T04:34:10;100023.50;;;30.88;18.03
70952;BME280;69214;55.880;37.542;2023-05-07T04:36:38;100004.16;;;30.62;19.73
70952;BME280;69214;55.880;37.542;2023-05-07T04:39:09;100025.47;;;31.00;17.91
70952;BME280;69214;55.880;37.542;2023-05-07T04:41:36;100029.66;;;31.70;17.22
70952;BME280;69214;55.880;37.542;2023-05-07T04:44:02;100031.25;;;32.27;16.38
70952;BME280;69214;55.880;37.542;2023-05-07T04:46:31;100023.13;;;32.57;16.23
70952;BME280;69214;55.880;37.542;2023-05-07T04:48:57;100029.59;;;32.73;16.21
70952;BME280;69214;55.880;37.542;2023-05-07T04:51:22;100029.38;;;32.98;16.24
70952;BME280;69214;55.880;37.542;2023-05-07T04:53:48;100023.19;;;32.92;16.16
70952;BME280;69214;55.880;37.542;2023-05-07T04:56:14;100029.44;;;33.17;15.83
70952;BME280;69214;55.880;37.542;2023-05-07T04:58:43;100026.56;;;33.33;15.20
70952;BME280;69214;55.880;37.542;2023-05-07T05:01:09;100024.88;;;33.47;15.15
70952;BME280;69214;55.880;37.542;2023-05-07T05:03:37;100026.50;;;33.68;15.16
70952;BME280;69214;55.880;37.542;2023-05-07T05:06:05;100026.22;;;33.92;15.66
70952;BME280;69214;55.880;37.542;2023-05-07T05:08:33;100025.25;;;34.50;14.60
70952;BME280;69214;55.880;37.542;2023-05-07T05:11:01;100020.53;;;34.57;15.38
70952;BME280;69214;55.880;37.542;2023-05-07T05:13:28;100030.91;;;33.85;14.66
70952;BME280;69214;55.880;37.542;2023-05-07T05:15:54;100025.50;;;32.87;14.97
70952;BME280;69214;55.880;37.542;2023-05-07T05:18:19;100027.50;;;32.55;15.22
70952;BME280;69214;55.880;37.542;2023-05-07T05:20:46;100030.94;;;32.95;15.10
70952;BME280;69214;55.880;37.542;2023-05-07T05:23:12;100030.91;;;33.65;14.25
70952;BME280;69214;55.880;37.542;2023-05-07T05:25:38;100026.41;;;34.03;14.10
70952;BME280;69214;55.880;37.542;2023-05-07T05:28:06;100031.22;;;34.67;13.92
70952;BME280;69214;55.880;37.542;2023-05-07T05:30:33;100032.28;;;35.09;13.58
70952;BME280;69214;55.880;37.542;2023-05-07T05:33:01;100034.69;;;35.06;13.81
70952;BME280;69214;55.880;37.542;2023-05-07T05:35:27;100042.94;;;35.15;13.49
70952;BME280;69214;55.880;37.542;2023-05-07T05:37:53;100041.03;;;34.05;13.74
70952;BME280;69214;55.880;37.542;2023-05-07T05:40:19;100034.75;;;32.08;14.47
70952;BME280;69214;55.880;37.542;2023-05-07T05:42:46;100040.28;;;31.09;16.00
70952;BME280;69214;55.880;37.542;2023-05-07T05:45:12;100032.50;;;31.86;15.06
70952;BME280;69214;55.880;37.542;2023-05-07T05:47:39;100045.56;;;32.81;14.25
70952;BME280;69214;55.880;37.542;2023-05-07T05:50:06;100044.19;;;32.91;15.22
70952;BME280;69214;55.880;37.542;2023-05-07T05:52:32;100033.59;;;31.81;14.21
70952;BME280;69214;55.880;37.542;2023-05-07T05:54:58;100036.56;;;31.33;15.13
70952;BME280;69214;55.880;37.542;2023-05-07T05:57:25;100040.97;;;31.86;14.79
70952;BME280;69214;55.880;37.542;2023-05-07T05:59:50;100034.16;;;31.87;14.24
70952;BME280;69214;55.880;37.542;2023-05-07T06:02:17;100027.25;;;31.44;14.74
70952;BME280;69214;55.880;37.542;2023-05-07T06:04:43;100051.56;;;32.33;14.20
70952;BME280;69214;55.880;37.542;2023-05-07T06:07:12;100033.19;;;33.79;13.50
70952;BME280;69214;55.880;37.542;2023-05-07T06:09:38;100053.84;;;34.64;12.63
70952;BME280;69214;55.880;37.542;2023-05-07T06:12:04;100049.16;;;33.68;12.75
70952;BME280;69214;55.880;37.542;2023-05-07T06:14:31;100063.31;;;30.74;13.91
70952;BME280;69214;55.880;37.542;2023-05-07T06:16:57;100064.09;;;28.33;15.42
70952;BME280;69214;55.880;37.542;2023-05-07T06:19:22;100041.78;;;25.58;16.55
70952;BME280;69214;55.880;37.542;2023-05-07T06:21:50;100058.03;;;25.92;17.11
70952;BME280;69214;55.880;37.542;2023-05-07T06:24:16;100059.94;;;25.24;16.65
70952;BME280;69214;55.880;37.542;2023-05-07T06:26:42;100050.09;;;22.96;18.29
70952;BME280;69214;55.880;37.542;2023-05-07T06:29:08;100064.53;;;22.74;18.78
70952;BME280;69214;55.880;37.542;2023-05-07T06:31:34;100066.34;;;23.07;18.13
70952;BME280;69214;55.880;37.542;2023-05-07T06:34:05;100056.16;;;22.31;19.19
70952;BME280;69214;55.880;37.542;2023-05-07T06:36:35;100060.25;;;23.80;18.19
70952;BME280;69214;55.880;37.542;2023-05-07T06:39:07;100058.22;;;25.95;16.84
70952;BME280;69214;55.880;37.542;2023-05-07T06:41:33;100056.91;;;27.46;15.46
70952;BME280;69214;55.880;37.542;2023-05-07T06:44:06;100063.28;;;28.24;15.18
70952;BME280;69214;55.880;37.542;2023-05-07T06:46:42;100054.16;;;26.89;15.57
70952;BME280;69214;55.880;37.542;2023-05-07T06:49:08;100065.66;;;26.08;16.24
70952;BME280;69214;55.880;37.542;2023-05-07T06:51:34;100055.13;;;26.76;15.76
70952;BME280;69214;55.880;37.542;2023-05-07T06:54:02;100057.22;;;27.88;15.24
70952;BME280;69214;55.880;37.542;2023-05-07T06:56:31;100069.00;;;28.83;15.03
70952;BME280;69214;55.880;37.542;2023-05-07T06:58:57;100064.00;;;29.81;14.13
70952;BME280;69214;55.880;37.542;2023-05-07T07:01:23;100061.72;;;30.28;13.33
70952;BME280;69214;55.880;37.542;2023-05-07T07:03:49;100052.81;;;29.30;14.03
70952;BME280;69214;55.880;37.542;2023-05-07T07:06:17;100065.88;;;28.38;14.72
70952;BME280;69214;55.880;37.542;2023-05-07T07:08:43;100045.97;;;28.60;14.56
70952;BME280;69214;55.880;37.542;2023-05-07T07:11:11;100040.69;;;29.18;14.44
70952;BME280;69214;55.880;37.542;2023-05-07T07:13:37;100071.00;;;30.28;13.83
70952;BME280;69214;55.880;37.542;2023-05-07T07:16:03;100064.25;;;31.15;13.82
70952;BME280;69214;55.880;37.542;2023-05-07T07:18:29;100068.00;;;32.15;13.27
70952;BME280;69214;55.880;37.542;2023-05-07T07:20:58;100053.06;;;31.71;12.49
70952;BME280;69214;55.880;37.542;2023-05-07T07:23:25;100062.38;;;30.58;13.34
70952;BME280;69214;55.880;37.542;2023-05-07T07:25:54;100071.59;;;29.47;16.67
70952;BME280;69214;55.880;37.542;2023-05-07T07:28:21;100047.28;;;29.22;15.03
70952;BME280;69214;55.880;37.542;2023-05-07T07:30:47;100038.50;;;29.65;13.56
70952;BME280;69214;55.880;37.542;2023-05-07T07:33:14;100066.38;;;29.08;13.91
70952;BME280;69214;55.880;37.542;2023-05-07T07:35:40;100063.38;;;28.83;14.14
70952;BME280;69214;55.880;37.542;2023-05-07T07:38:09;100060.03;;;30.15;15.94
70952;BME280;69214;55.880;37.542;2023-05-07T07:40:35;100063.91;;;30.10;13.68
70952;BME280;69214;55.880;37.542;2023-05-07T07:43:01;100055.66;;;26.95;14.64
70952;BME280;69214;55.880;37.542;2023-05-07T07:45:27;100049.56;;;23.31;16.70
70952;BME280;69214;55.880;37.542;2023-05-07T07:47:53;100054.22;;;22.03;18.11
70952;BME280;69214;55.880;37.542;2023-05-07T07:50:20;100015.88;;;21.71;18.26
70952;BME280;69214;55.880;37.542;2023-05-07T07:52:46;100046.13;;;21.38;18.02
70952;BME280;69214;55.880;37.542;2023-05-07T07:55:15;99992.16;;;19.86;18.94
70952;BME280;69214;55.880;37.542;2023-05-07T07:57:49;100061.19;;;20.78;18.84
70952;BME280;69214;55.880;37.542;2023-05-07T08:00:16;100044.09;;;22.41;17.66
70952;BME280;69214;55.880;37.542;2023-05-07T08:02:50;100045.81;;;23.41;16.91
70952;BME280;69214;55.880;37.542;2023-05-07T08:05:23;100059.13;;;23.25;16.97
70952;BME280;69214;55.880;37.542;2023-05-07T08:07:50;100033.84;;;22.36;17.01
70952;BME280;69214;55.880;37.542;2023-05-07T08:10:24;100055.63;;;21.66;17.78
70952;BME280;69214;55.880;37.542;2023-05-07T08:12:56;100055.28;;;22.07;17.87
70952;BME280;69214;55.880;37.542;2023-05-07T08:15:22;100041.47;;;22.25;17.06
70952;BME280;69214;55.880;37.542;2023-05-07T08:17:49;100050.56;;;20.15;18.08
70952;BME280;69214;55.880;37.542;2023-05-07T08:20:15;100042.13;;;17.78;19.84
70952;BME280;69214;55.880;37.542;2023-05-07T08:22:41;100060.09;;;16.95;20.86
70952;BME280;69214;55.880;37.542;2023-05-07T08:25:07;100040.38;;;16.38;20.85
70952;BME280;69214;55.880;37.542;2023-05-07T08:27:34;100060.25;;;15.84;21.81
70952;BME280;69214;55.880;37.542;2023-05-07T08:29:59;100052.56;;;15.19;22.05
70952;BME280;69214;55.880;37.542;2023-05-07T08:32:26;100058.66;;;14.65;22.18
70952;BME280;69214;55.880;37.542;2023-05-07T08:34:53;100050.44;;;14.53;22.75
70952;BME280;69214;55.880;37.542;2023-05-07T08:37:18;100052.72;;;14.84;22.92
70952;BME280;69214;55.880;37.542;2023-05-07T08:39:45;100062.81;;;15.24;22.64
70952;BME280;69214;55.880;37.542;2023-05-07T08:42:17;100059.44;;;15.50;22.32
70952;BME280;69214;55.880;37.542;2023-05-07T08:44:45;100057.13;;;15.59;22.09
70952;BME280;69214;55.880;37.542;2023-05-07T08:47:13;100052.59;;;15.36;22.45
70952;BME280;69214;55.880;37.542;2023-05-07T08:49:40;100052.97;;;15.11;22.75
70952;BME280;69214;55.880;37.542;2023-05-07T08:52:07;100052.03;;;15.06;22.56
70952;BME280;69214;55.880;37.542;2023-05-07T08:54:33;100059.56;;;14.82;22.62
70952;BME280;69214;55.880;37.542;2023-05-07T08:57:00;100049.28;;;14.49;23.11
70952;BME280;69214;55.880;37.542;2023-05-07T08:59:27;100059.06;;;14.33;22.93
70952;BME280;69214;55.880;37.542;2023-05-07T09:01:53;100050.16;;;14.03;22.74
70952;BME280;69214;55.880;37.542;2023-05-07T09:04:19;100035.97;;;13.59;23.40
70952;BME280;69214;55.880;37.542;2023-05-07T09:06:46;100054.09;;;13.60;23.96
70952;BME280;69214;55.880;37.542;2023-05-07T09:09:18;100045.03;;;13.71;23.51
70952;BME280;69214;55.880;37.542;2023-05-07T09:11:44;100063.88;;;13.68;23.68
70952;BME280;69214;55.880;37.542;2023-05-07T09:14:12;100033.47;;;13.16;23.96
70952;BME280;69214;55.880;37.542;2023-05-07T09:16:41;100054.03;;;12.95;24.16
70952;BME280;69214;55.880;37.542;2023-05-07T09:19:08;100021.81;;;12.30;24.40
70952;BME280;69214;55.880;37.542;2023-05-07T09:21:35;100060.50;;;11.97;24.78
70952;BME280;69214;55.880;37.542;2023-05-07T09:24:04;100049.41;;;11.67;25.54
70952;BME280;69214;55.880;37.542;2023-05-07T09:26:38;100026.97;;;11.59;25.32
70952;BME280;69214;55.880;37.542;2023-05-07T09:29:04;100053.66;;;11.88;24.91
70952;BME280;69214;55.880;37.542;2023-05-07T09:31:30;100049.56;;;11.73;24.21
70952;BME280;69214;55.880;37.542;2023-05-07T09:33:57;100034.91;;;11.42;25.28
70952;BME280;69214;55.880;37.542;2023-05-07T09:36:26;100044.50;;;11.51;25.27
70952;BME280;69214;55.880;37.542;2023-05-07T09:38:53;100045.34;;;11.52;25.28
70952;BME280;69214;55.880;37.542;2023-05-07T09:41:19;100045.56;;;11.50;25.42
70952;BME280;69214;55.880;37.542;2023-05-07T09:44:05;100039.59;;;11.60;25.08
70952;BME280;69214;55.880;37.542;2023-05-07T09:46:38;100040.53;;;11.72;24.97
70952;BME280;69214;55.880;37.542;2023-05-07T09:49:21;100033.16;;;11.73;24.83
70952;BME280;69214;55.880;37.542;2023-05-07T09:51:50;100044.75;;;11.68;25.11
70952;BME280;69214;55.880;37.542;2023-05-07T09:54:18;100041.47;;;11.34;25.53
70952;BME280;69214;55.880;37.542;2023-05-07T09:56:51;100051.16;;;11.06;25.55
70952;BME280;69214;55.880;37.542;2023-05-07T09:59:20;100035.09;;;10.53;26.54
70952;BME280;69214;55.880;37.542;2023-05-07T10:01:48;100046.59;;;10.10;27.30
70952;BME280;69214;55.880;37.542;2023-05-07T10:04:16;100044.56;;;9.72;27.31
70952;BME280;69214;55.880;37.542;2023-05-07T10:06:44;100046.25;;;9.67;27.31
70952;BME280;69214;55.880;37.542;2023-05-07T10:09:10;100047.72;;;9.76;27.01
70952;BME280;69214;55.880;37.542;2023-05-07T10:11:37;100016.44;;;9.85;26.75
70952;BME280;69214;55.880;37.542;2023-05-07T10:14:04;100045.00;;;10.41;26.74
70952;BME280;69214;55.880;37.542;2023-05-07T10:16:33;100032.69;;;10.69;26.02
70952;BME280;69214;55.880;37.542;2023-05-07T10:19:06;100036.56;;;10.87;26.16
70952;BME280;69214;55.880;37.542;2023-05-07T10:21:36;100036.00;;;11.10;25.71
70952;BME280;69214;55.880;37.542;2023-05-07T10:24:04;100037.19;;;11.45;26.02
70952;BME280;69214;55.880;37.542;2023-05-07T10:26:37;100040.19;;;11.87;25.45
70952;BME280;69214;55.880;37.542;2023-05-07T10:32:33;100040.31;;;12.65;24.88
70952;BME280;69214;55.880;37.542;2023-05-07T10:35:03;100040.84;;;13.04;24.46
70952;BME280;69214;55.880;37.542;2023-05-07T10:37:31;100028.41;;;13.31;23.84
70952;BME280;69214;55.880;37.542;2023-05-07T10:39:57;100038.94;;;13.69;23.64
70952;BME280;69214;55.880;37.542;2023-05-07T10:42:24;100040.13;;;13.97;23.74
70952;BME280;69214;55.880;37.542;2023-05-07T10:44:53;100047.16;;;14.16;23.87
70952;BME280;69214;55.880;37.542;2023-05-07T10:47:26;100044.53;;;14.21;23.63
70952;BME280;69214;55.880;37.542;2023-05-07T10:52:44;100040.63;;;13.70;24.79
70952;BME280;69214;55.880;37.542;2023-05-07T10:57:48;100048.81;;;12.75;24.78
70952;BME280;69214;55.880;37.542;2023-05-07T11:00:40;100047.50;;;12.11;25.55
70952;BME280;69214;55.880;37.542;2023-05-07T11:03:11;100046.41;;;11.51;26.54
70952;BME280;69214;55.880;37.542;2023-05-07T11:06:14;100052.38;;;11.10;26.57
70952;BME280;69214;55.880;37.542;2023-05-07T11:08:55;100055.97;;;10.72;27.30
70952;BME280;69214;55.880;37.542;2023-05-07T11:11:46;100054.50;;;10.38;26.85
70952;BME280;69214;55.880;37.542;2023-05-07T11:17:12;100035.38;;;9.60;28.46
70952;BME280;69214;55.880;37.542;2023-05-07T11:19:50;100051.09;;;9.58;27.95
70952;BME280;69214;55.880;37.542;2023-05-07T11:22:38;100042.25;;;9.76;27.22
70952;BME280;69214;55.880;37.542;2023-05-07T11:25:40;100006.53;;;10.04;27.79
70952;BME280;69214;55.880;37.542;2023-05-07T11:28:15;100028.09;;;10.63;27.16
70952;BME280;69214;55.880;37.542;2023-05-07T11:30:53;100035.75;;;11.43;26.41
70952;BME280;69214;55.880;37.542;2023-05-07T11:33:21;100009.66;;;11.90;25.67
70952;BME280;69214;55.880;37.542;2023-05-07T11:35:50;100026.28;;;12.43;25.69
70952;BME280;69214;55.880;37.542;2023-05-07T11:38:18;100035.50;;;12.79;25.52
70952;BME280;69214;55.880;37.542;2023-05-07T11:40:58;100045.72;;;13.02;25.36
70952;BME280;69214;55.880;37.542;2023-05-07T11:43:27;100027.38;;;13.02;25.28
70952;BME280;69214;55.880;37.542;2023-05-07T11:45:53;100044.16;;;13.06;25.51
70952;BME280;69214;55.880;37.542;2023-05-07T11:48:27;100035.28;;;12.80;25.31
70952;BME280;69214;55.880;37.542;2023-05-07T11:53:26;100049.59;;;12.64;25.91
70952;BME280;69214;55.880;37.542;2023-05-07T11:55:53;100047.38;;;12.24;26.45
70952;BME280;69214;55.880;37.542;2023-05-07T11:58:25;100053.72;;;12.00;26.31
70952;BME280;69214;55.880;37.542;2023-05-07T12:00:54;100048.66;;;12.04;26.67
70952;BME280;69214;55.880;37.542;2023-05-07T12:03:22;100025.78;;;12.16;26.42
70952;BME280;69214;55.880;37.542;2023-05-07T12:05:48;100039.50;;;12.64;26.30
70952;BME280;69214;55.880;37.542;2023-05-07T12:08:18;100036.66;;;13.01;25.14
70952;BME280;69214;55.880;37.542;2023-05-07T12:10:45;100036.09;;;13.11;24.82
70952;BME280;69214;55.880;37.542;2023-05-07T12:13:17;100044.44;;;13.16;25.30
70952;BME280;69214;55.880;37.542;2023-05-07T12:15:43;100040.69;;;12.98;25.06
70952;BME280;69214;55.880;37.542;2023-05-07T12:18:10;100035.22;;;12.69;25.47
70952;BME280;69214;55.880;37.542;2023-05-07T12:20:36;100035.97;;;12.27;26.10
70952;BME280;69214;55.880;37.542;2023-05-07T12:23:02;100034.59;;;11.75;26.32
70952;BME280;69214;55.880;37.542;2023-05-07T12:25:32;100030.50;;;11.41;26.96
70952;BME280;69214;55.880;37.542;2023-05-07T12:28:01;100028.41;;;11.12;27.27
70952;BME280;69214;55.880;37.542;2023-05-07T12:30:27;100034.19;;;10.97;27.04
70952;BME280;69214;55.880;37.542;2023-05-07T12:32:55;100028.06;;;10.70;27.72
70952;BME280;69214;55.880;37.542;2023-05-07T12:35:32;100038.50;;;10.42;27.63
70952;BME280;69214;55.880;37.542;2023-05-07T12:37:59;100041.53;;;10.14;27.65
70952;BME280;69214;55.880;37.542;2023-05-07T12:40:48;100030.75;;;9.67;27.80
70952;BME280;69214;55.880;37.542;2023-05-07T12:43:19;100034.13;;;9.36;28.62
70952;BME280;69214;55.880;37.542;2023-05-07T12:45:47;100025.94;;;9.23;28.76
70952;BME280;69214;55.880;37.542;2023-05-07T12:48:14;100020.50;;;9.17;28.78
70952;BME280;69214;55.880;37.542;2023-05-07T12:50:40;100035.16;;;9.29;28.25
70952;BME280;69214;55.880;37.542;2023-05-07T12:53:07;100034.97;;;9.44;28.55
70952;BME280;69214;55.880;37.542;2023-05-07T12:55:50;100039.56;;;9.56;28.48
70952;BME280;69214;55.880;37.542;2023-05-07T12:58:25;100024.22;;;9.75;28.50
70952;BME280;69214;55.880;37.542;2023-05-07T13:00:51;100027.25;;;10.18;27.93
70952;BME280;69214;55.880;37.542;2023-05-07T13:03:22;100012.81;;;10.56;27.56